sensor_id;sensor_type;location;lat;lon;timestamp;temperature;humidity
9987;DHT22;5033;46.310;11.214;2024-02-26T00:01:17;5.60;99.90
9987;DHT22;5033;46.310;11.214;2024-02-26T00:03:44;5.60;99.90
9987;DHT22;5033;46.310;11.214;2024-02-26T00:06:13;5.60;99.90
9987;DHT22;5033;46.310;11.214;2024-02-26T00:08:39;5.60;99.90
9987;DHT22;5033;46.310;11.214;2024-02-26T00:11:06;5.60;99.90
9987;DHT22;5033;46.310;11.214;2024-02-26T00:13:33;5.60;99.90
9987;DHT22;5033;46.310;11.214;2024-02-26T00:16:02;5.50;99.90
9987;DHT22;5033;46.310;11.214;2024-02-26T00:18:29;5.60;99.90
9987;DHT22;5033;46.310;11.214;2024-02-26T00:20:56;5.50;99.90
9987;DHT22;5033;46.310;11.214;2024-02-26T00:23:23;5.60;99.90
9987;DHT22;5033;46.310;11.214;2024-02-26T00:25:50;5.50;99.90
9987;DHT22;5033;46.310;11.214;2024-02-26T00:28:17;5.50;99.90
9987;DHT22;5033;46.310;11.214;2024-02-26T00:30:45;5.40;99.90
9987;DHT22;5033;46.310;11.214;2024-02-26T00:33:16;5.30;99.90
9987;DHT22;5033;46.310;11.214;2024-02-26T00:35:42;5.30;99.90
9987;DHT22;5033;46.310;11.214;2024-02-26T00:38:09;5.30;99.90
9987;DHT22;5033;46.310;11.214;2024-02-26T00:40:36;5.30;99.90
9987;DHT22;5033;46.310;11.214;2024-02-26T00:43:03;5.30;99.90
9987;DHT22;5033;46.310;11.214;2024-02-26T00:45:30;5.40;99.90
9987;DHT22;5033;46.310;11.214;2024-02-26T00:47:57;5.40;99.90
9987;DHT22;5033;46.310;11.214;2024-02-26T00:50:28;5.30;99.90
9987;DHT22;5033;46.310;11.214;2024-02-26T00:52:55;5.20;99.90
9987;DHT22;5033;46.310;11.214;2024-02-26T00:55:22;5.20;99.90
9987;DHT22;5033;46.310;11.214;2024-02-26T00:57:49;5.30;99.90
9987;DHT22;5033;46.310;11.214;2024-02-26T01:00:16;5.30;99.90
9987;DHT22;5033;46.310;11.214;2024-02-26T01:02:43;5.30;99.90
9987;DHT22;5033;46.310;11.214;2024-02-26T01:05:12;5.30;99.90
9987;DHT22;5033;46.310;11.214;2024-02-26T01:07:40;5.30;99.90
9987;DHT22;5033;46.310;11.214;2024-02-26T01:10:08;5.20;99.90
9987;DHT22;5033;46.310;11.214;2024-02-26T01:12:35;5.10;99.90
9987;DHT22;5033;46.310;11.214;2024-02-26T01:15:03;5.00;99.90
9987;DHT22;5033;46.310;11.214;2024-02-26T01:17:30;4.90;99.90
9987;DHT22;5033;46.310;11.214;2024-02-26T01:19:57;4.90;99.90
9987;DHT22;5033;46.310;11.214;2024-02-26T01:22:23;4.90;99.90
9987;DHT22;5033;46.310;11.214;2024-02-26T01:24:52;4.90;99.90
9987;DHT22;5033;46.310;11.214;2024-02-26T01:27:19;5.00;99.90
9987;DHT22;5033;46.310;11.214;2024-02-26T01:29:45;5.00;99.90
9987;DHT22;5033;46.310;11.214;2024-02-26T01:32:12;5.10;99.90
9987;DHT22;5033;46.310;11.214;2024-02-26T01:34:39;5.10;99.90
9987;DHT22;5033;46.310;11.214;2024-02-26T01:37:06;5.10;99.90
9987;DHT22;5033;46.310;11.214;2024-02-26T01:39:33;5.10;99.90
9987;DHT22;5033;46.310;11.214;2024-02-26T01:42:02;5.20;99.90
9987;DHT22;5033;46.310;11.214;2024-02-26T01:44:28;5.20;99.90
9987;DHT22;5033;46.310;11.214;2024-02-26T01:46:55;5.10;99.90
9987;DHT22;5033;46.310;11.214;2024-02-26T01:49:22;5.00;99.90
9987;DHT22;5033;46.310;11.214;2024-02-26T01:51:49;5.10;99.90
9987;DHT22;5033;46.310;11.214;2024-02-26T01:54:17;5.00;99.90
9987;DHT22;5033;46.310;11.214;2024-02-26T01:56:44;5.00;99.90
9987;DHT22;5033;46.310;11.214;2024-02-26T01:59:13;5.10;99.90
9987;DHT22;5033;46.310;11.214;2024-02-26T02:01:44;5.10;99.90
9987;DHT22;5033;46.310;11.214;2024-02-26T02:04:11;5.10;99.90
9987;DHT22;5033;46.310;11.214;2024-02-26T02:06:39;5.10;99.90
9987;DHT22;5033;46.310;11.214;2024-02-26T02:09:08;5.10;99.90
9987;DHT22;5033;46.310;11.214;2024-02-26T02:11:35;5.20;99.90
9987;DHT22;5033;46.310;11.214;2024-02-26T02:14:02;5.10;99.90
9987;DHT22;5033;46.310;11.214;2024-02-26T02:16:30;5.10;99.90
9987;DHT22;5033;46.310;11.214;2024-02-26T02:18:58;5.20;99.90
9987;DHT22;5033;46.310;11.214;2024-02-26T02:21:26;5.20;99.90
9987;DHT22;5033;46.310;11.214;2024-02-26T02:23:53;5.20;99.90
9987;DHT22;5033;46.310;11.214;2024-02-26T02:26:20;5.30;99.90
9987;DHT22;5033;46.310;11.214;2024-02-26T02:28:48;5.30;99.90
9987;DHT22;5033;46.310;11.214;2024-02-26T02:31:15;5.30;99.90
9987;DHT22;5033;46.310;11.214;2024-02-26T02:33:42;5.30;99.90
9987;DHT22;5033;46.310;11.214;2024-02-26T02:36:09;5.30;99.90
9987;DHT22;5033;46.310;11.214;2024-02-26T02:38:41;5.30;99.90
9987;DHT22;5033;46.310;11.214;2024-02-26T02:41:14;5.30;99.90
9987;DHT22;5033;46.310;11.214;2024-02-26T02:43:41;5.20;99.90
9987;DHT22;5033;46.310;11.214;2024-02-26T02:46:08;5.20;99.90
9987;DHT22;5033;46.310;11.214;2024-02-26T02:48:37;5.20;99.90
9987;DHT22;5033;46.310;11.214;2024-02-26T02:51:04;5.20;99.90
9987;DHT22;5033;46.310;11.214;2024-02-26T02:53:31;5.20;99.90
9987;DHT22;5033;46.310;11.214;2024-02-26T02:55:59;5.20;99.90
9987;DHT22;5033;46.310;11.214;2024-02-26T02:58:26;5.30;99.90
9987;DHT22;5033;46.310;11.214;2024-02-26T03:00:53;5.30;99.90
9987;DHT22;5033;46.310;11.214;2024-02-26T03:03:21;5.30;99.90
9987;DHT22;5033;46.310;11.214;2024-02-26T03:05:49;5.40;99.90
9987;DHT22;5033;46.310;11.214;2024-02-26T03:08:16;5.40;99.90
9987;DHT22;5033;46.310;11.214;2024-02-26T03:10:44;5.30;99.90
9987;DHT22;5033;46.310;11.214;2024-02-26T03:13:13;5.30;99.90
9987;DHT22;5033;46.310;11.214;2024-02-26T03:15:40;5.40;99.90
9987;DHT22;5033;46.310;11.214;2024-02-26T03:18:07;5.40;99.90
9987;DHT22;5033;46.310;11.214;2024-02-26T03:20:33;5.40;99.90
9987;DHT22;5033;46.310;11.214;2024-02-26T03:23:01;5.40;99.90
9987;DHT22;5033;46.310;11.214;2024-02-26T03:25:28;5.40;99.90
9987;DHT22;5033;46.310;11.214;2024-02-26T03:27:54;5.40;99.90
9987;DHT22;5033;46.310;11.214;2024-02-26T03:30:23;5.50;99.90
9987;DHT22;5033;46.310;11.214;2024-02-26T03:32:50;5.50;99.90
9987;DHT22;5033;46.310;11.214;2024-02-26T03:35:17;5.50;99.90
9987;DHT22;5033;46.310;11.214;2024-02-26T03:37:43;5.50;99.90
9987;DHT22;5033;46.310;11.214;2024-02-26T03:40:13;5.50;99.90
9987;DHT22;5033;46.310;11.214;2024-02-26T03:42:40;5.40;99.90
9987;DHT22;5033;46.310;11.214;2024-02-26T03:45:07;5.40;99.90
9987;DHT22;5033;46.310;11.214;2024-02-26T03:47:37;5.40;99.90
9987;DHT22;5033;46.310;11.214;2024-02-26T03:50:05;5.40;99.90
9987;DHT22;5033;46.310;11.214;2024-02-26T03:52:32;5.40;99.90
9987;DHT22;5033;46.310;11.214;2024-02-26T03:54:59;5.30;99.90
9987;DHT22;5033;46.310;11.214;2024-02-26T03:57:26;5.30;99.90
9987;DHT22;5033;46.310;11.214;2024-02-26T03:59:53;5.20;99.90
9987;DHT22;5033;46.310;11.214;2024-02-26T04:02:20;5.30;99.90
9987;DHT22;5033;46.310;11.214;2024-02-26T04:04:50;5.20;99.90
9987;DHT22;5033;46.310;11.214;2024-02-26T04:07:17;5.20;99.90
9987;DHT22;5033;46.310;11.214;2024-02-26T04:09:44;5.20;99.90
9987;DHT22;5033;46.310;11.214;2024-02-26T04:12:11;5.20;99.90
9987;DHT22;5033;46.310;11.214;2024-02-26T04:14:38;5.30;99.90
9987;DHT22;5033;46.310;11.214;2024-02-26T04:17:05;5.20;99.90
9987;DHT22;5033;46.310;11.214;2024-02-26T04:19:32;5.20;99.90
9987;DHT22;5033;46.310;11.214;2024-02-26T04:22:02;5.20;99.90
9987;DHT22;5033;46.310;11.214;2024-02-26T04:24:29;5.20;99.90
9987;DHT22;5033;46.310;11.214;2024-02-26T04:26:55;5.20;99.90
9987;DHT22;5033;46.310;11.214;2024-02-26T04:29:23;5.20;99.90
9987;DHT22;5033;46.310;11.214;2024-02-26T04:31:50;5.20;99.90
9987;DHT22;5033;46.310;11.214;2024-02-26T04:34:16;5.30;99.90
9987;DHT22;5033;46.310;11.214;2024-02-26T04:36:43;5.20;99.90
9987;DHT22;5033;46.310;11.214;2024-02-26T04:39:12;5.20;99.90
9987;DHT22;5033;46.310;11.214;2024-02-26T04:41:39;5.20;99.90
9987;DHT22;5033;46.310;11.214;2024-02-26T04:44:05;5.20;99.90
9987;DHT22;5033;46.310;11.214;2024-02-26T04:46:32;5.20;99.90
9987;DHT22;5033;46.310;11.214;2024-02-26T04:49:00;5.20;99.90
9987;DHT22;5033;46.310;11.214;2024-02-26T04:51:27;5.20;99.90
9987;DHT22;5033;46.310;11.214;2024-02-26T04:53:54;5.20;99.90
9987;DHT22;5033;46.310;11.214;2024-02-26T04:56:22;5.20;99.90
9987;DHT22;5033;46.310;11.214;2024-02-26T04:58:49;5.20;99.90
9987;DHT22;5033;46.310;11.214;2024-02-26T05:01:16;5.20;99.90
9987;DHT22;5033;46.310;11.214;2024-02-26T05:03:44;5.30;99.90
9987;DHT22;5033;46.310;11.214;2024-02-26T05:06:11;5.20;99.90
9987;DHT22;5033;46.310;11.214;2024-02-26T05:08:38;5.30;99.90
9987;DHT22;5033;46.310;11.214;2024-02-26T05:11:05;5.30;99.90
9987;DHT22;5033;46.310;11.214;2024-02-26T05:13:33;5.30;99.90
9987;DHT22;5033;46.310;11.214;2024-02-26T05:16:00;5.30;99.90
9987;DHT22;5033;46.310;11.214;2024-02-26T05:18:28;5.30;99.90
9987;DHT22;5033;46.310;11.214;2024-02-26T05:20:55;5.30;99.90
9987;DHT22;5033;46.310;11.214;2024-02-26T05:23:22;5.30;99.90
9987;DHT22;5033;46.310;11.214;2024-02-26T05:25:49;5.30;99.90
9987;DHT22;5033;46.310;11.214;2024-02-26T05:28:16;5.30;99.90
9987;DHT22;5033;46.310;11.214;2024-02-26T05:30:47;5.30;99.90
9987;DHT22;5033;46.310;11.214;2024-02-26T05:33:14;5.30;99.90
9987;DHT22;5033;46.310;11.214;2024-02-26T05:35:41;5.40;99.90
9987;DHT22;5033;46.310;11.214;2024-02-26T05:38:08;5.40;99.90
9987;DHT22;5033;46.310;11.214;2024-02-26T05:40:35;5.40;99.90
9987;DHT22;5033;46.310;11.214;2024-02-26T05:43:02;5.40;99.90
9987;DHT22;5033;46.310;11.214;2024-02-26T05:45:29;5.40;99.90
9987;DHT22;5033;46.310;11.214;2024-02-26T05:47:57;5.40;99.90
9987;DHT22;5033;46.310;11.214;2024-02-26T05:50:24;5.40;99.90
9987;DHT22;5033;46.310;11.214;2024-02-26T05:52:51;5.40;99.90
9987;DHT22;5033;46.310;11.214;2024-02-26T05:55:18;5.40;99.90
9987;DHT22;5033;46.310;11.214;2024-02-26T05:57:45;5.40;99.90
9987;DHT22;5033;46.310;11.214;2024-02-26T06:00:12;5.40;99.90
9987;DHT22;5033;46.310;11.214;2024-02-26T06:02:40;5.40;99.90
9987;DHT22;5033;46.310;11.214;2024-02-26T06:05:08;5.40;99.90
9987;DHT22;5033;46.310;11.214;2024-02-26T06:07:35;5.40;99.90
9987;DHT22;5033;46.310;11.214;2024-02-26T06:10:02;5.50;99.90
9987;DHT22;5033;46.310;11.214;2024-02-26T06:12:30;5.50;99.90
9987;DHT22;5033;46.310;11.214;2024-02-26T06:14:58;5.50;99.90
9987;DHT22;5033;46.310;11.214;2024-02-26T06:17:26;5.50;99.90
9987;DHT22;5033;46.310;11.214;2024-02-26T06:19:54;5.50;99.90
9987;DHT22;5033;46.310;11.214;2024-02-26T06:22:22;5.50;99.90
9987;DHT22;5033;46.310;11.214;2024-02-26T06:24:49;5.50;99.90
9987;DHT22;5033;46.310;11.214;2024-02-26T06:27:16;5.50;99.90
9987;DHT22;5033;46.310;11.214;2024-02-26T06:29:43;5.40;99.90
9987;DHT22;5033;46.310;11.214;2024-02-26T06:32:10;5.40;99.90
9987;DHT22;5033;46.310;11.214;2024-02-26T06:34:37;5.40;99.90
9987;DHT22;5033;46.310;11.214;2024-02-26T06:37:07;5.50;99.90
9987;DHT22;5033;46.310;11.214;2024-02-26T06:39:35;5.60;99.90
9987;DHT22;5033;46.310;11.214;2024-02-26T06:42:03;5.60;99.90
9987;DHT22;5033;46.310;11.214;2024-02-26T06:44:30;5.60;99.90
9987;DHT22;5033;46.310;11.214;2024-02-26T06:46:58;5.60;99.90
9987;DHT22;5033;46.310;11.214;2024-02-26T06:49:26;5.60;99.90
9987;DHT22;5033;46.310;11.214;2024-02-26T06:51:53;5.50;99.90
9987;DHT22;5033;46.310;11.214;2024-02-26T06:54:20;5.50;99.90
9987;DHT22;5033;46.310;11.214;2024-02-26T06:56:48;5.50;99.90
9987;DHT22;5033;46.310;11.214;2024-02-26T06:59:15;5.50;99.90
9987;DHT22;5033;46.310;11.214;2024-02-26T07:01:43;5.50;99.90
9987;DHT22;5033;46.310;11.214;2024-02-26T07:04:09;5.50;99.90
9987;DHT22;5033;46.310;11.214;2024-02-26T07:06:37;5.50;99.90
9987;DHT22;5033;46.310;11.214;2024-02-26T07:09:04;5.60;99.90
9987;DHT22;5033;46.310;11.214;2024-02-26T07:11:31;5.60;99.90
9987;DHT22;5033;46.310;11.214;2024-02-26T07:13:59;5.60;99.90
9987;DHT22;5033;46.310;11.214;2024-02-26T07:16:26;5.70;99.90
9987;DHT22;5033;46.310;11.214;2024-02-26T07:18:53;5.70;99.90
9987;DHT22;5033;46.310;11.214;2024-02-26T07:21:20;5.70;99.90
9987;DHT22;5033;46.310;11.214;2024-02-26T07:23:47;5.70;99.90
9987;DHT22;5033;46.310;11.214;2024-02-26T07:26:14;5.70;99.90
9987;DHT22;5033;46.310;11.214;2024-02-26T07:28:43;5.70;99.90
9987;DHT22;5033;46.310;11.214;2024-02-26T07:31:11;5.80;99.90
9987;DHT22;5033;46.310;11.214;2024-02-26T07:33:38;5.80;99.90
9987;DHT22;5033;46.310;11.214;2024-02-26T07:36:05;5.80;99.90
9987;DHT22;5033;46.310;11.214;2024-02-26T07:38:32;5.80;99.90
9987;DHT22;5033;46.310;11.214;2024-02-26T07:40:59;5.80;99.90
9987;DHT22;5033;46.310;11.214;2024-02-26T07:43:28;5.80;99.90
9987;DHT22;5033;46.310;11.214;2024-02-26T07:45:55;5.70;99.90
9987;DHT22;5033;46.310;11.214;2024-02-26T07:48:23;5.80;99.90
9987;DHT22;5033;46.310;11.214;2024-02-26T07:50:50;5.80;99.90
9987;DHT22;5033;46.310;11.214;2024-02-26T07:53:17;5.80;99.90
9987;DHT22;5033;46.310;11.214;2024-02-26T07:55:44;5.80;99.90
9987;DHT22;5033;46.310;11.214;2024-02-26T07:58:10;5.70;99.90
9987;DHT22;5033;46.310;11.214;2024-02-26T08:00:37;5.80;99.90
9987;DHT22;5033;46.310;11.214;2024-02-26T08:03:05;5.80;99.90
9987;DHT22;5033;46.310;11.214;2024-02-26T08:05:33;5.70;99.90
9987;DHT22;5033;46.310;11.214;2024-02-26T08:08:00;5.70;99.90
9987;DHT22;5033;46.310;11.214;2024-02-26T08:10:27;5.70;99.90
9987;DHT22;5033;46.310;11.214;2024-02-26T08:12:53;5.70;99.90
9987;DHT22;5033;46.310;11.214;2024-02-26T08:15:20;5.70;99.90
9987;DHT22;5033;46.310;11.214;2024-02-26T08:17:48;5.70;99.90
9987;DHT22;5033;46.310;11.214;2024-02-26T08:20:15;5.60;99.90
9987;DHT22;5033;46.310;11.214;2024-02-26T08:22:43;5.70;99.90
9987;DHT22;5033;46.310;11.214;2024-02-26T08:25:10;5.80;99.90
9987;DHT22;5033;46.310;11.214;2024-02-26T08:27:38;5.80;99.90
9987;DHT22;5033;46.310;11.214;2024-02-26T08:30:06;6.00;99.90
9987;DHT22;5033;46.310;11.214;2024-02-26T08:32:33;6.00;99.90
9987;DHT22;5033;46.310;11.214;2024-02-26T08:35:00;6.10;99.90
9987;DHT22;5033;46.310;11.214;2024-02-26T08:37:27;6.20;99.90
9987;DHT22;5033;46.310;11.214;2024-02-26T08:39:55;6.30;99.90
9987;DHT22;5033;46.310;11.214;2024-02-26T08:42:22;6.30;99.90
9987;DHT22;5033;46.310;11.214;2024-02-26T08:44:49;6.40;99.90
9987;DHT22;5033;46.310;11.214;2024-02-26T08:47:16;6.40;99.90
9987;DHT22;5033;46.310;11.214;2024-02-26T08:49:44;6.50;99.90
9987;DHT22;5033;46.310;11.214;2024-02-26T08:52:11;6.60;99.90
9987;DHT22;5033;46.310;11.214;2024-02-26T08:54:39;6.70;99.90
9987;DHT22;5033;46.310;11.214;2024-02-26T08:57:07;6.80;99.90
9987;DHT22;5033;46.310;11.214;2024-02-26T08:59:35;6.90;99.90
9987;DHT22;5033;46.310;11.214;2024-02-26T09:02:02;7.00;99.90
9987;DHT22;5033;46.310;11.214;2024-02-26T09:04:29;7.10;99.90
9987;DHT22;5033;46.310;11.214;2024-02-26T09:06:56;7.10;99.90
9987;DHT22;5033;46.310;11.214;2024-02-26T09:09:23;7.10;99.90
9987;DHT22;5033;46.310;11.214;2024-02-26T09:11:52;7.10;99.90
9987;DHT22;5033;46.310;11.214;2024-02-26T09:14:21;7.20;99.90
9987;DHT22;5033;46.310;11.214;2024-02-26T09:16:48;7.30;99.90
9987;DHT22;5033;46.310;11.214;2024-02-26T09:19:15;7.40;99.90
9987;DHT22;5033;46.310;11.214;2024-02-26T09:21:43;7.40;99.90
9987;DHT22;5033;46.310;11.214;2024-02-26T09:24:10;7.50;99.90
9987;DHT22;5033;46.310;11.214;2024-02-26T09:26:37;7.50;99.90
9987;DHT22;5033;46.310;11.214;2024-02-26T09:29:04;7.70;99.90
9987;DHT22;5033;46.310;11.214;2024-02-26T09:31:34;7.80;99.90
9987;DHT22;5033;46.310;11.214;2024-02-26T09:34:00;7.90;99.90
9987;DHT22;5033;46.310;11.214;2024-02-26T09:36:27;8.10;99.90
9987;DHT22;5033;46.310;11.214;2024-02-26T09:38:54;8.20;99.90
9987;DHT22;5033;46.310;11.214;2024-02-26T09:41:21;8.20;99.90
9987;DHT22;5033;46.310;11.214;2024-02-26T09:43:51;8.40;99.90
9987;DHT22;5033;46.310;11.214;2024-02-26T09:46:23;8.50;99.90
9987;DHT22;5033;46.310;11.214;2024-02-26T09:48:51;8.50;99.90
9987;DHT22;5033;46.310;11.214;2024-02-26T09:51:18;8.50;99.90
9987;DHT22;5033;46.310;11.214;2024-02-26T09:53:47;8.60;99.90
9987;DHT22;5033;46.310;11.214;2024-02-26T09:56:16;8.80;99.90
9987;DHT22;5033;46.310;11.214;2024-02-26T09:58:43;8.70;99.90
9987;DHT22;5033;46.310;11.214;2024-02-26T10:01:13;8.60;99.90
9987;DHT22;5033;46.310;11.214;2024-02-26T10:03:41;8.60;99.90
9987;DHT22;5033;46.310;11.214;2024-02-26T10:06:11;8.70;99.90
9987;DHT22;5033;46.310;11.214;2024-02-26T10:08:38;9.10;99.90
9987;DHT22;5033;46.310;11.214;2024-02-26T10:11:07;9.50;99.90
9987;DHT22;5033;46.310;11.214;2024-02-26T10:13:35;9.50;99.90
9987;DHT22;5033;46.310;11.214;2024-02-26T10:16:02;9.50;99.90
9987;DHT22;5033;46.310;11.214;2024-02-26T10:18:45;9.40;99.90
9987;DHT22;5033;46.310;11.214;2024-02-26T10:21:14;9.30;99.90
9987;DHT22;5033;46.310;11.214;2024-02-26T10:23:43;9.10;99.90
9987;DHT22;5033;46.310;11.214;2024-02-26T10:26:11;9.00;99.90
9987;DHT22;5033;46.310;11.214;2024-02-26T10:28:39;9.00;99.90
9987;DHT22;5033;46.310;11.214;2024-02-26T10:31:07;9.10;99.90
9987;DHT22;5033;46.310;11.214;2024-02-26T10:33:35;9.20;99.90
9987;DHT22;5033;46.310;11.214;2024-02-26T10:36:03;9.20;99.90
9987;DHT22;5033;46.310;11.214;2024-02-26T10:38:32;9.10;99.90
9987;DHT22;5033;46.310;11.214;2024-02-26T10:40:59;9.10;99.90
9987;DHT22;5033;46.310;11.214;2024-02-26T10:43:26;9.00;99.90
9987;DHT22;5033;46.310;11.214;2024-02-26T10:45:54;9.00;99.90
9987;DHT22;5033;46.310;11.214;2024-02-26T10:48:22;8.80;99.90
9987;DHT22;5033;46.310;11.214;2024-02-26T10:50:49;8.70;99.90
9987;DHT22;5033;46.310;11.214;2024-02-26T10:53:17;8.60;99.90
9987;DHT22;5033;46.310;11.214;2024-02-26T10:55:49;8.60;99.90
9987;DHT22;5033;46.310;11.214;2024-02-26T10:58:17;8.50;99.90
9987;DHT22;5033;46.310;11.214;2024-02-26T11:00:45;8.50;99.90
9987;DHT22;5033;46.310;11.214;2024-02-26T11:03:15;8.60;99.90
9987;DHT22;5033;46.310;11.214;2024-02-26T11:05:44;8.70;99.90
9987;DHT22;5033;46.310;11.214;2024-02-26T11:08:12;8.70;99.90
9987;DHT22;5033;46.310;11.214;2024-02-26T11:10:39;8.70;99.90
9987;DHT22;5033;46.310;11.214;2024-02-26T11:13:10;8.60;99.90
9987;DHT22;5033;46.310;11.214;2024-02-26T11:15:39;8.50;99.90
9987;DHT22;5033;46.310;11.214;2024-02-26T11:18:07;8.40;99.90
9987;DHT22;5033;46.310;11.214;2024-02-26T11:20:38;8.40;99.90
9987;DHT22;5033;46.310;11.214;2024-02-26T11:23:07;8.40;99.90
9987;DHT22;5033;46.310;11.214;2024-02-26T11:25:35;8.30;99.90
9987;DHT22;5033;46.310;11.214;2024-02-26T11:28:08;8.20;99.90
9987;DHT22;5033;46.310;11.214;2024-02-26T11:30:39;8.20;99.90
9987;DHT22;5033;46.310;11.214;2024-02-26T11:33:08;8.10;99.90
9987;DHT22;5033;46.310;11.214;2024-02-26T11:35:36;8.10;99.90
9987;DHT22;5033;46.310;11.214;2024-02-26T11:38:03;8.10;99.90
9987;DHT22;5033;46.310;11.214;2024-02-26T11:40:33;8.00;99.90
9987;DHT22;5033;46.310;11.214;2024-02-26T11:43:09;8.10;99.90
9987;DHT22;5033;46.310;11.214;2024-02-26T11:45:50;8.00;99.90
9987;DHT22;5033;46.310;11.214;2024-02-26T11:48:23;8.10;99.90
9987;DHT22;5033;46.310;11.214;2024-02-26T11:50:52;8.20;99.90
9987;DHT22;5033;46.310;11.214;2024-02-26T11:53:26;8.30;99.90
9987;DHT22;5033;46.310;11.214;2024-02-26T11:56:21;8.30;99.90
9987;DHT22;5033;46.310;11.214;2024-02-26T11:58:53;8.30;99.90
9987;DHT22;5033;46.310;11.214;2024-02-26T12:01:40;8.40;99.90
9987;DHT22;5033;46.310;11.214;2024-02-26T12:04:08;8.50;99.90
9987;DHT22;5033;46.310;11.214;2024-02-26T12:06:56;8.40;99.90
9987;DHT22;5033;46.310;11.214;2024-02-26T12:09:32;8.30;99.90
9987;DHT22;5033;46.310;11.214;2024-02-26T12:11:59;8.20;99.90
9987;DHT22;5033;46.310;11.214;2024-02-26T12:14:28;8.20;99.90
9987;DHT22;5033;46.310;11.214;2024-02-26T12:16:56;8.20;99.90
9987;DHT22;5033;46.310;11.214;2024-02-26T12:19:24;8.20;99.90
9987;DHT22;5033;46.310;11.214;2024-02-26T12:21:52;8.20;99.90
9987;DHT22;5033;46.310;11.214;2024-02-26T12:24:21;8.30;99.90
9987;DHT22;5033;46.310;11.214;2024-02-26T12:26:48;8.30;99.90
9987;DHT22;5033;46.310;11.214;2024-02-26T12:29:15;8.30;99.90
9987;DHT22;5033;46.310;11.214;2024-02-26T12:31:43;8.20;99.90
9987;DHT22;5033;46.310;11.214;2024-02-26T12:34:11;8.30;99.90
9987;DHT22;5033;46.310;11.214;2024-02-26T12:36:38;8.30;99.90
9987;DHT22;5033;46.310;11.214;2024-02-26T12:39:06;8.40;99.90
9987;DHT22;5033;46.310;11.214;2024-02-26T12:41:35;8.30;99.90
9987;DHT22;5033;46.310;11.214;2024-02-26T12:44:02;8.30;99.90
9987;DHT22;5033;46.310;11.214;2024-02-26T12:46:29;8.30;99.90
9987;DHT22;5033;46.310;11.214;2024-02-26T12:48:58;8.20;99.90
9987;DHT22;5033;46.310;11.214;2024-02-26T12:51:25;8.20;99.90
9987;DHT22;5033;46.310;11.214;2024-02-26T12:53:53;8.20;99.90
9987;DHT22;5033;46.310;11.214;2024-02-26T12:56:21;8.10;99.90
9987;DHT22;5033;46.310;11.214;2024-02-26T12:58:50;8.10;99.90
9987;DHT22;5033;46.310;11.214;2024-02-26T13:01:22;8.00;99.90
9987;DHT22;5033;46.310;11.214;2024-02-26T13:03:50;8.00;99.90
9987;DHT22;5033;46.310;11.214;2024-02-26T13:06:19;7.90;99.90
9987;DHT22;5033;46.310;11.214;2024-02-26T13:08:47;7.90;99.90
9987;DHT22;5033;46.310;11.214;2024-02-26T13:11:14;7.90;99.90
9987;DHT22;5033;46.310;11.214;2024-02-26T13:13:41;7.90;99.90
9987;DHT22;5033;46.310;11.214;2024-02-26T13:16:13;7.90;99.90
9987;DHT22;5033;46.310;11.214;2024-02-26T13:18:40;7.90;99.90
9987;DHT22;5033;46.310;11.214;2024-02-26T13:21:09;7.90;99.90
9987;DHT22;5033;46.310;11.214;2024-02-26T13:23:39;7.80;99.90
9987;DHT22;5033;46.310;11.214;2024-02-26T13:26:07;7.80;99.90
9987;DHT22;5033;46.310;11.214;2024-02-26T13:28:34;7.80;99.90
9987;DHT22;5033;46.310;11.214;2024-02-26T13:31:01;7.90;99.90
9987;DHT22;5033;46.310;11.214;2024-02-26T13:33:30;8.10;99.90
9987;DHT22;5033;46.310;11.214;2024-02-26T13:35:58;8.20;99.90
9987;DHT22;5033;46.310;11.214;2024-02-26T13:38:25;8.30;99.90
9987;DHT22;5033;46.310;11.214;2024-02-26T13:40:54;8.40;99.90
9987;DHT22;5033;46.310;11.214;2024-02-26T13:43:21;8.50;99.90
9987;DHT22;5033;46.310;11.214;2024-02-26T13:45:48;8.50;99.90
9987;DHT22;5033;46.310;11.214;2024-02-26T13:48:15;8.50;99.90
9987;DHT22;5033;46.310;11.214;2024-02-26T13:50:43;8.50;99.90
9987;DHT22;5033;46.310;11.214;2024-02-26T13:53:11;8.40;99.90
9987;DHT22;5033;46.310;11.214;2024-02-26T13:55:39;8.40;99.90
9987;DHT22;5033;46.310;11.214;2024-02-26T13:58:11;8.40;99.90
9987;DHT22;5033;46.310;11.214;2024-02-26T14:00:39;8.40;99.90
9987;DHT22;5033;46.310;11.214;2024-02-26T14:03:07;8.30;99.90
9987;DHT22;5033;46.310;11.214;2024-02-26T14:05:34;8.10;99.90
9987;DHT22;5033;46.310;11.214;2024-02-26T14:08:01;8.10;99.90
9987;DHT22;5033;46.310;11.214;2024-02-26T14:10:28;8.10;99.90
9987;DHT22;5033;46.310;11.214;2024-02-26T14:12:56;8.10;99.90
9987;DHT22;5033;46.310;11.214;2024-02-26T14:15:24;8.10;99.90
9987;DHT22;5033;46.310;11.214;2024-02-26T14:17:51;8.20;99.90
9987;DHT22;5033;46.310;11.214;2024-02-26T14:20:22;8.20;99.90
9987;DHT22;5033;46.310;11.214;2024-02-26T14:22:49;8.20;99.90
9987;DHT22;5033;46.310;11.214;2024-02-26T14:25:16;8.20;99.90
9987;DHT22;5033;46.310;11.214;2024-02-26T14:27:43;8.10;99.90
9987;DHT22;5033;46.310;11.214;2024-02-26T14:30:12;8.10;99.90
9987;DHT22;5033;46.310;11.214;2024-02-26T14:32:41;8.10;99.90
9987;DHT22;5033;46.310;11.214;2024-02-26T14:35:08;8.00;99.90
9987;DHT22;5033;46.310;11.214;2024-02-26T14:37:35;7.90;99.90
9987;DHT22;5033;46.310;11.214;2024-02-26T14:40:03;7.90;99.90
9987;DHT22;5033;46.310;11.214;2024-02-26T14:42:30;7.80;99.90
9987;DHT22;5033;46.310;11.214;2024-02-26T14:44:57;7.80;99.90
9987;DHT22;5033;46.310;11.214;2024-02-26T14:47:25;7.70;99.90
9987;DHT22;5033;46.310;11.214;2024-02-26T14:49:53;7.80;99.90
9987;DHT22;5033;46.310;11.214;2024-02-26T14:52:20;7.70;99.90
9987;DHT22;5033;46.310;11.214;2024-02-26T14:54:48;7.70;99.90
9987;DHT22;5033;46.310;11.214;2024-02-26T14:57:17;7.70;99.90
9987;DHT22;5033;46.310;11.214;2024-02-26T14:59:43;7.60;99.90
9987;DHT22;5033;46.310;11.214;2024-02-26T15:02:10;7.50;99.90
9987;DHT22;5033;46.310;11.214;2024-02-26T15:04:37;7.40;99.90
9987;DHT22;5033;46.310;11.214;2024-02-26T15:07:06;7.20;99.90
9987;DHT22;5033;46.310;11.214;2024-02-26T15:09:33;7.10;99.90
9987;DHT22;5033;46.310;11.214;2024-02-26T15:12:00;7.00;99.90
9987;DHT22;5033;46.310;11.214;2024-02-26T15:14:28;6.90;99.90
9987;DHT22;5033;46.310;11.214;2024-02-26T15:16:55;6.80;99.90
9987;DHT22;5033;46.310;11.214;2024-02-26T15:19:22;6.80;99.90
9987;DHT22;5033;46.310;11.214;2024-02-26T15:21:49;6.80;99.90
9987;DHT22;5033;46.310;11.214;2024-02-26T15:24:17;6.70;99.90
9987;DHT22;5033;46.310;11.214;2024-02-26T15:26:44;6.70;99.90
9987;DHT22;5033;46.310;11.214;2024-02-26T15:29:11;6.70;99.90
9987;DHT22;5033;46.310;11.214;2024-02-26T15:31:38;6.70;99.90
9987;DHT22;5033;46.310;11.214;2024-02-26T15:34:05;6.60;99.90
9987;DHT22;5033;46.310;11.214;2024-02-26T15:36:34;6.60;99.90
9987;DHT22;5033;46.310;11.214;2024-02-26T15:39:01;6.60;99.90
9987;DHT22;5033;46.310;11.214;2024-02-26T15:41:30;6.60;99.90
9987;DHT22;5033;46.310;11.214;2024-02-26T15:43:57;6.60;99.90
9987;DHT22;5033;46.310;11.214;2024-02-26T15:46:26;6.60;99.90
9987;DHT22;5033;46.310;11.214;2024-02-26T15:48:53;6.60;99.90
9987;DHT22;5033;46.310;11.214;2024-02-26T15:51:21;6.50;99.90
9987;DHT22;5033;46.310;11.214;2024-02-26T15:53:48;6.40;99.90
9987;DHT22;5033;46.310;11.214;2024-02-26T15:56:18;6.40;99.90
9987;DHT22;5033;46.310;11.214;2024-02-26T15:58:50;6.50;99.90
9987;DHT22;5033;46.310;11.214;2024-02-26T16:01:17;6.60;99.90
9987;DHT22;5033;46.310;11.214;2024-02-26T16:03:44;6.90;99.90
9987;DHT22;5033;46.310;11.214;2024-02-26T16:06:17;7.10;99.90